createdAt,value
2024-03-05T00:01:49.920Z,5
2024-03-05T00:03:58.592Z,5
2024-03-05T00:06:07.775Z,5
2024-03-05T00:08:16.463Z,5
2024-03-05T00:10:26.860Z,4.9
2024-03-05T00:12:37.408Z,5
2024-03-05T00:14:46.698Z,4.9
2024-03-05T00:16:58.011Z,5
2024-03-05T00:19:06.288Z,5
2024-03-05T00:21:14.775Z,5
2024-03-05T00:23:23.073Z,5
2024-03-05T00:25:32.154Z,5
2024-03-05T00:27:40.147Z,5
2024-03-05T00:29:49.480Z,4.9
2024-03-05T00:32:04.897Z,4.9
2024-03-05T00:34:14.830Z,4.9
2024-03-05T00:36:23.076Z,4.9
2024-03-05T00:38:33.433Z,4.9
2024-03-05T00:40:45.355Z,4.9
2024-03-05T00:42:55.105Z,4.9
2024-03-05T00:45:05.124Z,4.9
2024-03-05T00:47:15.638Z,4.9
2024-03-05T00:49:25.033Z,4.9
2024-03-05T00:51:35.045Z,4.9
2024-03-05T00:53:43.434Z,4.9
2024-03-05T00:55:52.557Z,4.9
2024-03-05T00:58:00.998Z,4.9
2024-03-05T01:00:10.384Z,4.9
2024-03-05T01:02:19.966Z,4.9
2024-03-05T01:04:27.518Z,4.9
2024-03-05T01:06:36.040Z,4.9
2024-03-05T01:08:44.331Z,4.8
2024-03-05T01:10:52.766Z,4.8
2024-03-05T01:13:01.130Z,4.8
2024-03-05T01:15:11.243Z,4.8
2024-03-05T01:17:21.586Z,4.8
2024-03-05T01:19:30.745Z,4.8
2024-03-05T01:21:38.238Z,4.8
2024-03-05T01:23:46.578Z,4.8
2024-03-05T01:25:54.409Z,4.8
2024-03-05T01:28:02.933Z,4.8
2024-03-05T01:30:12.865Z,4.8
2024-03-05T01:32:23.085Z,4.8
2024-03-05T01:34:34.553Z,4.8
2024-03-05T01:36:43.099Z,4.8
2024-03-05T01:38:54.077Z,4.8
2024-03-05T01:41:02.492Z,4.8
2024-03-05T01:43:14.206Z,4.8
2024-03-05T01:45:21.735Z,4.7
2024-03-05T01:47:33.943Z,4.7
2024-03-05T01:49:42.347Z,4.8
2024-03-05T01:51:55.636Z,4.7
2024-03-05T01:54:07.995Z,4.7
2024-03-05T01:56:18.768Z,4.7
2024-03-05T01:58:27.293Z,4.7
2024-03-05T02:00:39.664Z,4.7
2024-03-05T02:02:54.141Z,4.7
2024-03-05T02:05:03.720Z,4.7
2024-03-05T02:07:16.603Z,4.8
2024-03-05T02:09:25.488Z,4.8
2024-03-05T02:11:35.447Z,4.8
2024-03-05T02:13:46.503Z,4.7
2024-03-05T02:15:58.423Z,4.8
2024-03-05T02:18:09.695Z,4.8
2024-03-05T02:20:19.087Z,4.8
2024-03-05T02:22:30.778Z,4.8
2024-03-05T02:24:39.655Z,4.8
2024-03-05T02:26:48.025Z,4.8
2024-03-05T02:28:58.005Z,4.8
2024-03-05T02:31:56.775Z,4.9
2024-03-05T02:34:21.578Z,4.9
2024-03-05T02:36:29.868Z,4.9
2024-03-05T02:38:41.568Z,4.9
2024-03-05T02:40:50.339Z,4.9
2024-03-05T02:43:01.464Z,5
2024-03-05T02:45:12.641Z,5
2024-03-05T02:47:22.217Z,5
2024-03-05T02:49:30.748Z,5
2024-03-05T02:51:39.001Z,5
2024-03-05T02:53:48.487Z,5
2024-03-05T02:55:57.412Z,5
2024-03-05T02:58:08.228Z,5
2024-03-05T03:00:21.596Z,5
2024-03-05T03:02:32.427Z,5
2024-03-05T03:04:41.906Z,5
2024-03-05T03:06:50.713Z,5
2024-03-05T03:09:04.644Z,5
2024-03-05T03:11:17.410Z,4.9
2024-03-05T03:13:26.048Z,4.9
2024-03-05T03:15:37.610Z,4.9
2024-03-05T03:17:50.622Z,4.9
2024-03-05T03:19:59.350Z,5
2024-03-05T03:22:08.066Z,5
2024-03-05T03:24:19.385Z,5
2024-03-05T03:26:28.534Z,4.9
2024-03-05T03:28:40.589Z,5
2024-03-05T03:30:49.668Z,5
2024-03-05T03:32:57.324Z,5
2024-03-05T03:35:09.119Z,4.9
2024-03-05T03:37:19.196Z,5
2024-03-05T03:39:29.864Z,4.9
2024-03-05T03:41:37.835Z,4.9
2024-03-05T03:43:46.226Z,5
2024-03-05T03:45:54.496Z,4.9
2024-03-05T03:48:02.818Z,4.9
2024-03-05T03:50:15.515Z,4.9
2024-03-05T03:52:24.346Z,4.9
2024-03-05T03:54:33.895Z,4.9
2024-03-05T03:56:42.313Z,4.9
2024-03-05T03:58:50.919Z,4.9
2024-03-05T04:01:00.588Z,4.9
2024-03-05T04:03:09.233Z,4.9
2024-03-05T04:05:16.901Z,5
2024-03-05T04:07:28.048Z,4.9
2024-03-05T04:09:37.897Z,4.9
2024-03-05T04:11:45.762Z,4.9
2024-03-05T04:13:54.153Z,4.9
2024-03-05T04:16:03.258Z,4.9
2024-03-05T04:18:12.092Z,4.9
2024-03-05T04:20:21.879Z,4.9
2024-03-05T04:22:34.099Z,4.9
2024-03-05T04:24:48.703Z,4.9
2024-03-05T04:27:04.621Z,4.9
2024-03-05T04:29:18.241Z,4.9
2024-03-05T04:31:35.006Z,4.9
2024-03-05T04:33:49.617Z,4.9
2024-03-05T04:35:57.121Z,4.8
2024-03-05T04:38:10.256Z,4.8
2024-03-05T04:40:20.210Z,4.8
2024-03-05T04:42:28.683Z,4.8
2024-03-05T04:44:40.310Z,4.7
2024-03-05T04:46:48.149Z,4.7
2024-03-05T04:48:57.073Z,4.7
2024-03-05T04:51:05.510Z,4.7
2024-03-05T04:53:14.504Z,4.7
2024-03-05T04:55:25.263Z,4.7
2024-03-05T04:57:37.879Z,4.6
2024-03-05T04:59:49.283Z,4.7
2024-03-05T05:02:01.683Z,4.7
2024-03-05T05:04:14.894Z,4.6
2024-03-05T05:06:23.904Z,4.6
2024-03-05T05:08:33.163Z,4.6
2024-03-05T05:10:42.957Z,4.6
2024-03-05T05:12:52.746Z,4.6
2024-03-05T05:15:01.687Z,4.6
2024-03-05T05:17:10.205Z,4.6
2024-03-05T05:19:19.393Z,4.6
2024-03-05T05:21:28.753Z,4.6
2024-03-05T05:23:37.034Z,4.6
2024-03-05T05:25:47.402Z,4.6
2024-03-05T05:27:55.685Z,4.6
2024-03-05T05:30:09.061Z,4.6
2024-03-05T05:32:26.289Z,4.6
2024-03-05T05:34:39.947Z,4.6
2024-03-05T05:36:49.417Z,4.6
2024-03-05T05:38:57.068Z,4.5
2024-03-05T05:41:07.766Z,4.5
2024-03-05T05:43:16.096Z,4.5
2024-03-05T05:45:25.382Z,4.5
2024-03-05T05:47:33.624Z,4.4
2024-03-05T05:49:42.044Z,4.4
2024-03-05T05:51:50.847Z,4.4
2024-03-05T05:53:59.109Z,4.4
2024-03-05T05:56:11.485Z,4.3
2024-03-05T05:58:19.000Z,4.3
2024-03-05T06:00:38.522Z,4.3
2024-03-05T06:02:49.516Z,4.3
2024-03-05T06:05:04.740Z,4.3
2024-03-05T06:07:17.509Z,4.2
2024-03-05T06:09:30.023Z,4.2
2024-03-05T06:11:40.684Z,4.2
2024-03-05T06:13:49.227Z,4.2
2024-03-05T06:15:57.650Z,4.2
2024-03-05T06:18:06.121Z,4.2
2024-03-05T06:20:15.009Z,4.2
2024-03-05T06:22:27.079Z,4.1
2024-03-05T06:24:40.234Z,4.1
2024-03-05T06:26:52.894Z,4.1
2024-03-05T06:29:02.087Z,4.1
2024-03-05T06:31:11.667Z,4.1
2024-03-05T06:33:20.777Z,4.1
2024-03-05T06:35:31.084Z,4.1
2024-03-05T06:37:40.718Z,4.1
2024-03-05T06:39:49.821Z,4.1
2024-03-05T06:42:02.084Z,4.1
2024-03-05T06:44:12.705Z,4.2
2024-03-05T06:46:23.648Z,4.2
2024-03-05T06:48:32.275Z,4.2
2024-03-05T06:50:44.139Z,4.2
2024-03-05T06:53:10.247Z,4.1
2024-03-05T06:55:36.053Z,4.1
2024-03-05T06:57:51.301Z,4.1
2024-03-05T06:59:59.622Z,4.1
2024-03-05T07:02:09.505Z,4.1
2024-03-05T07:04:19.414Z,4.1
2024-03-05T07:06:27.030Z,4.1
2024-03-05T07:08:44.879Z,4.1
2024-03-05T07:10:53.447Z,4.2
2024-03-05T07:13:04.008Z,4.1
2024-03-05T07:15:16.309Z,4.1
2024-03-05T07:17:26.389Z,4.1
2024-03-05T07:19:36.915Z,4.1
2024-03-05T07:21:50.756Z,4.1
2024-03-05T07:24:01.102Z,4.1
2024-03-05T07:26:15.605Z,4.1
2024-03-05T07:28:27.328Z,4.1
2024-03-05T07:30:39.107Z,4
2024-03-05T07:32:48.251Z,4
2024-03-05T07:35:33.507Z,4
2024-03-05T07:37:26.494Z,3.9
2024-03-05T07:39:40.098Z,3.9
2024-03-05T07:41:54.508Z,3.9
2024-03-05T07:44:05.481Z,4
2024-03-05T07:46:15.898Z,4
2024-03-05T07:48:27.316Z,4
2024-03-05T07:50:35.998Z,4
2024-03-05T07:52:47.161Z,4
2024-03-05T07:54:58.248Z,4
2024-03-05T07:57:07.465Z,4
2024-03-05T07:59:17.170Z,4.1
2024-03-05T08:01:25.934Z,4.1
2024-03-05T08:03:34.808Z,4.1
2024-03-05T08:05:45.856Z,4.1
2024-03-05T08:07:56.567Z,4.1
2024-03-05T08:10:09.994Z,4.1
2024-03-05T08:12:22.779Z,4.1
2024-03-05T08:14:32.000Z,4.1
2024-03-05T08:16:40.786Z,4.1
2024-03-05T08:18:53.516Z,4.1
2024-03-05T08:21:03.119Z,4.1
2024-03-05T08:23:11.702Z,4.1
2024-03-05T08:25:23.979Z,4.2
2024-03-05T08:27:32.983Z,4.2
2024-03-05T08:29:42.966Z,4.3
2024-03-05T08:31:51.350Z,4.4
2024-03-05T08:34:05.976Z,4.4
2024-03-05T08:36:14.385Z,4.4
2024-03-05T08:38:22.884Z,4.4
2024-03-05T08:40:37.584Z,4.5
2024-03-05T08:42:47.362Z,4.5
2024-03-05T08:44:57.037Z,4.5
2024-03-05T08:47:05.958Z,4.5
2024-03-05T08:49:16.107Z,4.5
2024-03-05T08:51:25.801Z,4.5
2024-03-05T08:53:34.216Z,4.5
2024-03-05T08:55:45.068Z,4.6
2024-03-05T08:57:57.133Z,4.6
2024-03-05T09:00:22.466Z,4.7
2024-03-05T09:02:43.413Z,4.7
2024-03-05T09:04:52.911Z,4.7
2024-03-05T09:07:03.302Z,4.8
2024-03-05T09:09:13.704Z,4.8
2024-03-05T09:11:23.793Z,4.8
2024-03-05T09:13:34.085Z,4.8
2024-03-05T09:15:46.483Z,4.9
2024-03-05T09:17:55.370Z,4.9
2024-03-05T09:20:16.591Z,4.9
2024-03-05T09:22:25.262Z,5
2024-03-05T09:24:36.936Z,5.1
2024-03-05T09:26:44.438Z,5.1
2024-03-05T09:28:53.895Z,5.1
2024-03-05T09:31:04.959Z,5.1
2024-03-05T09:33:18.098Z,5.2
2024-03-05T09:35:29.197Z,5.3
2024-03-05T09:37:42.291Z,5.4
2024-03-05T09:39:52.602Z,5.3
2024-03-05T09:42:01.780Z,5.3
2024-03-05T09:44:16.074Z,5.4
2024-03-05T09:46:26.831Z,5.5
2024-03-05T09:48:36.638Z,5.4
2024-03-05T09:50:45.762Z,5.5
2024-03-05T09:52:55.195Z,5.6
2024-03-05T09:55:04.511Z,5.7
2024-03-05T09:57:14.424Z,5.9
2024-03-05T09:59:22.953Z,6
2024-03-05T10:01:36.092Z,6.3
2024-03-05T10:03:46.560Z,6.2
2024-03-05T10:05:56.869Z,6.3
2024-03-05T10:08:05.809Z,6.3
2024-03-05T10:10:16.232Z,6.3
2024-03-05T10:12:29.385Z,6.4
2024-03-05T10:14:37.896Z,6.4
2024-03-05T10:16:48.748Z,6.5
2024-03-05T10:18:57.312Z,6.7
2024-03-05T10:21:17.349Z,6.7
2024-03-05T10:23:28.972Z,6.8
2024-03-05T10:25:41.732Z,6.8
2024-03-05T10:27:50.752Z,6.8
2024-03-05T10:30:00.046Z,6.8
2024-03-05T10:32:13.344Z,6.7
2024-03-05T10:34:24.396Z,6.7
2024-03-05T10:36:36.516Z,6.7
2024-03-05T10:38:46.200Z,6.7
2024-03-05T10:40:59.896Z,6.6
2024-03-05T10:43:11.942Z,6.6
2024-03-05T10:45:23.756Z,6.7
2024-03-05T10:47:35.978Z,6.8
2024-03-05T10:49:49.066Z,6.7
2024-03-05T10:51:59.086Z,6.7
2024-03-05T10:54:08.630Z,6.7
2024-03-05T10:56:17.898Z,6.8
2024-03-05T10:58:59.527Z,6.8
2024-03-05T11:01:10.699Z,6.9
2024-03-05T11:03:38.360Z,7
2024-03-05T11:05:52.308Z,7
2024-03-05T11:08:02.631Z,6.9
2024-03-05T11:10:14.104Z,6.9
2024-03-05T11:12:23.983Z,6.9
2024-03-05T11:14:35.110Z,6.9
2024-03-05T11:16:43.546Z,7
2024-03-05T11:18:58.259Z,7
2024-03-05T11:21:10.971Z,7
2024-03-05T11:23:22.824Z,7.1
2024-03-05T11:25:33.996Z,7.3
2024-03-05T11:27:48.487Z,7.4
2024-03-05T11:30:10.760Z,7.5
2024-03-05T11:32:24.713Z,7.8
2024-03-05T11:34:37.395Z,7.8
2024-03-05T11:36:47.347Z,7.9
2024-03-05T11:39:00.423Z,8.1
2024-03-05T11:41:08.950Z,8.1
2024-03-05T11:43:39.579Z,8.1
2024-03-05T11:45:49.945Z,8.1
2024-03-05T11:47:58.283Z,8.1
2024-03-05T11:50:12.870Z,8
2024-03-05T11:52:22.635Z,8
2024-03-05T11:54:30.642Z,8
2024-03-05T11:56:40.995Z,8.1
2024-03-05T11:58:55.385Z,8
2024-03-05T12:01:05.285Z,8.1
2024-03-05T12:03:14.117Z,8.2
2024-03-05T12:05:24.493Z,8.3
2024-03-05T12:07:34.897Z,8.3
2024-03-05T12:09:44.362Z,8
2024-03-05T12:12:04.866Z,7.7
2024-03-05T12:14:17.166Z,7.4
2024-03-05T12:16:26.740Z,7.2
2024-03-05T12:18:35.395Z,7.1
2024-03-05T12:20:48.436Z,7.1
2024-03-05T12:23:00.625Z,7
2024-03-05T12:25:10.686Z,7
2024-03-05T12:27:19.644Z,7
2024-03-05T12:29:30.539Z,6.9
2024-03-05T12:31:39.565Z,6.8
2024-03-05T12:33:48.669Z,6.8
2024-03-05T12:36:00.000Z,6.8
2024-03-05T12:38:10.727Z,6.6
2024-03-05T12:40:24.330Z,6.4
2024-03-05T12:42:35.327Z,6.4
2024-03-05T12:44:45.945Z,6.2
2024-03-05T12:47:11.050Z,6.2
2024-03-05T12:49:26.384Z,6.2
2024-03-05T12:51:36.231Z,6.2
2024-03-05T12:53:45.226Z,6.2
2024-03-05T12:56:02.668Z,6.2
2024-03-05T12:58:14.299Z,6.2
2024-03-05T13:00:22.418Z,6.2
2024-03-05T13:02:30.954Z,6.2
2024-03-05T13:04:42.741Z,6.2
2024-03-05T13:06:52.973Z,6.3
2024-03-05T13:09:02.983Z,6.3
2024-03-05T13:11:16.233Z,6.3
2024-03-05T13:13:25.427Z,6.2
2024-03-05T13:15:34.246Z,6.2
2024-03-05T13:17:43.789Z,6.3
2024-03-05T13:19:55.773Z,6.3
2024-03-05T13:22:06.221Z,6.4
2024-03-05T13:24:17.961Z,6.3
2024-03-05T13:26:36.446Z,6.2
2024-03-05T13:28:49.665Z,6.2
2024-03-05T13:30:58.804Z,6.2
2024-03-05T13:33:10.070Z,6.2
2024-03-05T13:35:24.820Z,6.1
2024-03-05T13:37:36.938Z,6
2024-03-05T13:39:48.380Z,6
2024-03-05T13:42:06.577Z,5.9
2024-03-05T13:44:16.632Z,5.9
2024-03-05T13:46:32.363Z,6
2024-03-05T13:48:40.887Z,5.9
2024-03-05T13:50:54.161Z,6
2024-03-05T13:53:05.673Z,6
2024-03-05T13:55:18.492Z,5.9
2024-03-05T13:57:28.119Z,5.9
2024-03-05T13:59:36.526Z,5.9
2024-03-05T14:01:45.007Z,6
2024-03-05T14:03:55.933Z,5.9
2024-03-05T14:06:07.806Z,5.9
2024-03-05T14:08:18.473Z,5.8
2024-03-05T14:10:27.231Z,5.8
2024-03-05T14:12:37.924Z,5.8
2024-03-05T14:14:46.691Z,5.7
2024-03-05T14:16:55.274Z,5.8
2024-03-05T14:19:08.287Z,5.7
2024-03-05T14:21:22.960Z,5.8
2024-03-05T14:23:33.821Z,5.8
2024-03-05T14:25:45.743Z,5.7
2024-03-05T14:27:55.181Z,5.7
2024-03-05T14:30:04.202Z,5.6
2024-03-05T14:32:13.405Z,5.6
2024-03-05T14:34:23.082Z,5.6
2024-03-05T14:36:33.508Z,5.6
2024-03-05T14:38:44.588Z,5.5
2024-03-05T14:40:56.134Z,5.5
2024-03-05T14:43:06.050Z,5.4
2024-03-05T14:45:17.418Z,5.4
2024-03-05T14:47:26.021Z,5.5
2024-03-05T14:49:34.936Z,5.4
2024-03-05T14:51:44.408Z,5.4
2024-03-05T14:53:54.506Z,5.4
2024-03-05T14:56:03.278Z,5.4
2024-03-05T14:58:14.049Z,5.4
2024-03-05T15:00:24.830Z,5.4
2024-03-05T15:02:32.608Z,5.4
2024-03-05T15:04:41.322Z,5.3
2024-03-05T15:06:51.725Z,5.3
2024-03-05T15:09:01.473Z,5.2
2024-03-05T15:11:12.368Z,5.2
2024-03-05T15:13:22.505Z,5.2
2024-03-05T15:15:31.145Z,5.2
2024-03-05T15:17:40.189Z,5.2
2024-03-05T15:19:51.383Z,5.1
2024-03-05T15:22:00.455Z,5.1
2024-03-05T15:24:12.167Z,5.1
2024-03-05T15:26:25.926Z,5.1
2024-03-05T15:28:38.539Z,5.2
2024-03-05T15:30:47.317Z,5.2
2024-03-05T15:32:56.703Z,5.2
2024-03-05T15:35:08.045Z,5.1
2024-03-05T15:37:26.166Z,5.1
2024-03-05T15:39:36.316Z,5.1
2024-03-05T15:41:44.993Z,5.1
2024-03-05T15:43:57.392Z,5.1
2024-03-05T15:46:06.609Z,5.1
2024-03-05T15:48:15.237Z,5.1
2024-03-05T15:50:26.204Z,5.1
2024-03-05T15:52:35.045Z,5.1
2024-03-05T15:54:45.348Z,5.1
2024-03-05T15:56:59.413Z,5.1
2024-03-05T15:59:25.425Z,5.1
2024-03-05T16:01:37.280Z,5.1
2024-03-05T16:03:56.498Z,5.1
2024-03-05T16:06:18.604Z,5.1
2024-03-05T16:08:30.673Z,5.1
2024-03-05T16:10:45.345Z,5
2024-03-05T16:13:05.350Z,4.9
2024-03-05T16:15:15.243Z,4.9
2024-03-05T16:17:25.389Z,4.9
2024-03-05T16:19:38.050Z,4.9
2024-03-05T16:21:47.782Z,4.9
2024-03-05T16:23:58.480Z,4.9
2024-03-05T16:26:13.811Z,4.9
2024-03-05T16:28:25.286Z,5
2024-03-05T16:30:35.358Z,5
2024-03-05T16:32:43.393Z,5
2024-03-05T16:34:51.800Z,4.9
2024-03-05T16:37:01.644Z,5
2024-03-05T16:39:11.467Z,4.9
2024-03-05T16:41:25.171Z,4.9
2024-03-05T16:43:36.788Z,4.9
2024-03-05T16:45:46.774Z,4.9
2024-03-05T16:47:57.164Z,4.9
2024-03-05T16:50:06.241Z,4.9
2024-03-05T16:52:14.718Z,4.9
2024-03-05T16:54:23.297Z,4.9
2024-03-05T16:56:33.134Z,4.9
2024-03-05T16:58:43.523Z,4.9
2024-03-05T17:00:56.467Z,4.9
2024-03-05T17:03:08.291Z,4.9
2024-03-05T17:05:19.516Z,4.9
2024-03-05T17:07:29.020Z,4.9
2024-03-05T17:09:39.325Z,4.9
2024-03-05T17:11:49.722Z,4.9
2024-03-05T17:13:58.186Z,4.9
2024-03-05T17:16:07.671Z,4.9
2024-03-05T17:18:17.875Z,4.9
2024-03-05T17:20:26.718Z,4.9
2024-03-05T17:22:37.045Z,4.9
2024-03-05T17:24:46.094Z,4.9
2024-03-05T17:26:57.236Z,4.9
2024-03-05T17:29:08.765Z,4.9
2024-03-05T17:31:17.316Z,4.9
2024-03-05T17:33:25.616Z,4.9
2024-03-05T17:35:34.268Z,4.9
2024-03-05T17:37:44.574Z,4.9
2024-03-05T17:39:52.959Z,4.9
2024-03-05T17:42:03.520Z,4.9
2024-03-05T17:44:13.719Z,4.9
2024-03-05T17:46:25.916Z,4.9
2024-03-05T17:48:35.909Z,4.9
2024-03-05T17:50:45.256Z,4.9
2024-03-05T17:52:52.807Z,4.9
2024-03-05T17:55:06.809Z,4.9
2024-03-05T17:57:17.790Z,4.9
2024-03-05T17:59:26.230Z,4.9
2024-03-05T18:01:36.844Z,4.9
2024-03-05T18:03:46.724Z,4.9
2024-03-05T18:05:55.723Z,5
2024-03-05T18:08:05.058Z,4.9
2024-03-05T18:10:15.826Z,4.9
2024-03-05T18:12:26.421Z,4.9
2024-03-05T18:14:35.522Z,4.9
2024-03-05T18:16:46.872Z,4.9
2024-03-05T18:18:56.178Z,4.9
2024-03-05T18:21:05.491Z,4.9
2024-03-05T18:23:13.495Z,4.9
2024-03-05T18:25:23.186Z,4.9
2024-03-05T18:27:33.705Z,4.9
2024-03-05T18:29:42.962Z,4.9
2024-03-05T18:31:52.983Z,4.9
2024-03-05T18:34:02.378Z,4.9
2024-03-05T18:36:10.780Z,4.9
2024-03-05T18:38:24.430Z,4.9
2024-03-05T18:40:43.383Z,4.8
2024-03-05T18:42:53.762Z,4.8
2024-03-05T18:45:02.229Z,4.7
2024-03-05T18:47:11.680Z,4.7
2024-03-05T18:49:21.097Z,4.7
2024-03-05T18:51:29.656Z,4.8
2024-03-05T18:53:43.636Z,4.7
2024-03-05T18:55:59.478Z,4.7
2024-03-05T18:58:10.477Z,4.6
2024-03-05T19:00:20.175Z,4.6
2024-03-05T19:02:29.460Z,4.6
2024-03-05T19:04:38.437Z,4.5
2024-03-05T19:06:48.516Z,4.6
2024-03-05T19:08:59.738Z,4.6
2024-03-05T19:11:10.757Z,4.6
2024-03-05T19:13:20.690Z,4.6
2024-03-05T19:15:30.191Z,4.5
2024-03-05T19:17:39.459Z,4.6
2024-03-05T19:19:52.013Z,4.6
2024-03-05T19:22:00.627Z,4.6
2024-03-05T19:24:10.834Z,4.6
2024-03-05T19:26:20.049Z,4.6
2024-03-05T19:28:33.564Z,4.6
2024-03-05T19:30:47.133Z,4.6
2024-03-05T19:32:58.099Z,4.7
2024-03-05T19:35:12.211Z,4.7
2024-03-05T19:37:25.209Z,4.7
2024-03-05T19:39:33.849Z,4.7
2024-03-05T19:41:42.896Z,4.7
2024-03-05T19:43:54.603Z,4.7
2024-03-05T19:46:06.046Z,4.8
2024-03-05T19:48:14.423Z,4.7
2024-03-05T19:50:25.556Z,4.7
2024-03-05T19:52:34.894Z,4.7
2024-03-05T19:56:51.720Z,4.8
2024-03-05T19:59:02.875Z,4.8
2024-03-05T20:01:12.470Z,4.8
2024-03-05T20:03:21.015Z,4.8
2024-03-05T20:05:30.896Z,4.8
2024-03-05T20:07:40.162Z,4.8
2024-03-05T20:09:49.275Z,4.8
2024-03-05T20:11:57.654Z,4.8
2024-03-05T20:14:10.344Z,4.8
2024-03-05T20:16:21.085Z,4.8
2024-03-05T20:18:30.098Z,4.8
2024-03-05T20:20:38.674Z,4.8
2024-03-05T20:22:49.702Z,4.8
2024-03-05T20:25:01.750Z,4.8
2024-03-05T20:27:11.382Z,4.8
2024-03-05T20:29:21.382Z,4.7
2024-03-05T20:31:31.290Z,4.7
2024-03-05T20:33:44.379Z,4.8
2024-03-05T20:35:52.801Z,4.7
2024-03-05T20:38:02.712Z,4.7
2024-03-05T20:40:14.406Z,4.7
2024-03-05T20:42:24.154Z,4.7
2024-03-05T20:44:33.981Z,4.7
2024-03-05T20:46:42.644Z,4.6
2024-03-05T20:48:51.215Z,4.6
2024-03-05T20:50:58.751Z,4.6
2024-03-05T20:53:07.789Z,4.6
2024-03-05T20:55:17.336Z,4.6
2024-03-05T20:57:26.079Z,4.6
2024-03-05T20:59:36.060Z,4.6
2024-03-05T21:01:46.963Z,4.6
2024-03-05T21:03:55.725Z,4.6
2024-03-05T21:06:05.100Z,4.6
2024-03-05T21:08:14.373Z,4.5
2024-03-05T21:10:23.979Z,4.5
2024-03-05T21:12:33.472Z,4.5
2024-03-05T21:14:43.393Z,4.5
2024-03-05T21:16:52.397Z,4.5
2024-03-05T21:19:04.613Z,4.5
2024-03-05T21:21:15.475Z,4.5
2024-03-05T21:23:24.360Z,4.5
2024-03-05T21:25:36.723Z,4.6
2024-03-05T21:27:55.585Z,4.5
2024-03-05T21:30:06.370Z,4.5
2024-03-05T21:32:18.912Z,4.4
2024-03-05T21:34:27.607Z,4.4
2024-03-05T21:36:38.445Z,4.4
2024-03-05T21:38:46.733Z,4.4
2024-03-05T21:41:03.132Z,4.4
2024-03-05T21:43:16.580Z,4.4
2024-03-05T21:45:29.316Z,4.4
2024-03-05T21:47:38.472Z,4.3
2024-03-05T21:49:47.747Z,4.4
2024-03-05T21:51:56.178Z,4.3
2024-03-05T21:54:05.194Z,4.3
2024-03-05T21:56:16.695Z,4.3
2024-03-05T21:58:27.699Z,4.3
2024-03-05T22:00:37.511Z,4.3
2024-03-05T22:02:46.373Z,4.3
2024-03-05T22:04:55.639Z,4.3
2024-03-05T22:07:07.661Z,4.4
2024-03-05T22:09:16.604Z,4.3
2024-03-05T22:11:25.949Z,4.3
2024-03-05T22:13:34.598Z,4.3
2024-03-05T22:15:44.406Z,4.3
2024-03-05T22:17:55.272Z,4.3
2024-03-05T22:20:03.970Z,4.3
2024-03-05T22:22:15.001Z,4.3
2024-03-05T22:24:23.479Z,4.3
